createdAt,value
2019-04-25T00:02:36.753Z,28.83
2019-04-25T00:05:10.951Z,24.93
2019-04-25T00:07:42.466Z,33.37
2019-04-25T00:10:13.794Z,24.00
2019-04-25T00:12:44.478Z,25.80
2019-04-25T00:15:14.086Z,32.30
2019-04-25T00:17:44.540Z,27.50
2019-04-25T00:20:14.623Z,33.90
2019-04-25T00:23:05.227Z,30.47
2019-04-25T00:25:52.791Z,29.63
2019-04-25T00:28:22.305Z,26.33
2019-04-25T00:30:52.276Z,27.60
2019-04-25T00:33:22.363Z,30.07
2019-04-25T00:35:52.709Z,26.37
2019-04-25T00:38:22.248Z,31.33
2019-04-25T00:40:53.525Z,26.30
2019-04-25T00:43:22.916Z,29.67
2019-04-25T00:45:52.710Z,31.87
2019-04-25T00:48:22.372Z,27.97
2019-04-25T00:50:54.477Z,26.97
2019-04-25T00:53:22.797Z,24.97
2019-04-25T00:55:52.866Z,28.23
2019-04-25T00:58:35.296Z,25.83
2019-04-25T01:01:38.819Z,26.50
2019-04-25T01:04:08.172Z,25.43
2019-04-25T01:06:37.534Z,28.17
2019-04-25T01:09:12.471Z,27.70
2019-04-25T01:11:42.399Z,23.60
2019-04-25T01:14:11.980Z,27.20
2019-04-25T01:16:41.758Z,26.73
2019-04-25T01:19:11.121Z,31.13
2019-04-25T01:21:40.436Z,25.80
2019-04-25T01:24:10.169Z,27.93
2019-04-25T01:26:39.449Z,24.70
2019-04-25T01:29:09.119Z,25.67
2019-04-25T01:31:38.604Z,32.90
2019-04-25T01:34:10.736Z,24.40
2019-04-25T01:37:19.015Z,25.17
2019-04-25T01:39:59.304Z,25.67
2019-04-25T01:43:03.742Z,22.53
2019-04-25T01:45:34.394Z,26.90
2019-04-25T01:48:04.044Z,29.57
2019-04-25T01:50:35.230Z,23.73
2019-04-25T01:53:04.411Z,30.00
2019-04-25T01:55:33.778Z,20.80
2019-04-25T01:58:03.885Z,28.17
2019-04-25T02:00:39.283Z,26.90
2019-04-25T02:03:08.706Z,24.50
2019-04-25T02:05:38.054Z,24.10
2019-04-25T02:08:07.486Z,30.73
2019-04-25T02:10:36.841Z,24.47
2019-04-25T02:13:08.420Z,27.30
2019-04-25T02:15:37.694Z,28.03
2019-04-25T02:18:07.020Z,32.47
2019-04-25T02:20:36.345Z,36.47
2019-04-25T02:23:05.695Z,24.60
2019-04-25T02:25:34.980Z,24.27
2019-04-25T02:28:05.668Z,26.63
2019-04-25T02:30:35.767Z,25.13
2019-04-25T02:33:09.006Z,25.63
2019-04-25T02:35:36.163Z,29.00
2019-04-25T02:38:08.821Z,27.37
2019-04-25T02:40:36.662Z,28.20
2019-04-25T02:43:07.905Z,27.17
2019-04-25T02:46:08.632Z,28.07
2019-04-25T02:49:29.947Z,25.63
2019-04-25T02:52:12.808Z,27.30
2019-04-25T02:54:39.217Z,27.43
2019-04-25T02:57:08.445Z,27.30
2019-04-25T02:59:38.007Z,27.00
2019-04-25T03:02:09.201Z,28.97
2019-04-25T03:04:38.818Z,25.17
2019-04-25T03:07:11.073Z,30.43
2019-04-25T03:09:40.250Z,29.57
2019-04-25T03:12:09.611Z,26.57
2019-04-25T03:14:39.039Z,32.40
2019-04-25T03:17:09.922Z,28.73
2019-04-25T03:19:59.886Z,26.53
2019-04-25T03:22:30.405Z,27.43
2019-04-25T03:25:00.269Z,31.97
2019-04-25T03:27:30.718Z,32.43
2019-04-25T03:29:59.990Z,25.87
2019-04-25T03:32:29.522Z,32.87
2019-04-25T03:34:58.839Z,26.40
2019-04-25T03:37:28.139Z,27.63
2019-04-25T03:39:57.416Z,28.00
2019-04-25T03:42:26.661Z,27.33
2019-04-25T03:44:55.924Z,34.10
2019-04-25T03:47:25.177Z,32.40
2019-04-25T03:49:55.436Z,24.60
2019-04-25T03:52:24.860Z,28.63
2019-04-25T03:54:56.729Z,31.63
2019-04-25T03:57:25.468Z,31.77
2019-04-25T03:59:54.720Z,29.70
2019-04-25T04:02:25.122Z,26.67
2019-04-25T04:04:54.463Z,26.97
2019-04-25T04:07:23.951Z,32.20
2019-04-25T04:09:54.964Z,32.60
2019-04-25T04:12:24.529Z,33.47
2019-04-25T04:14:53.901Z,28.53
2019-04-25T04:17:35.981Z,25.50
2019-04-25T04:20:37.130Z,37.60
2019-04-25T04:23:14.377Z,34.60
2019-04-25T04:25:43.825Z,40.63
2019-04-25T04:28:14.086Z,30.77
2019-04-25T04:30:45.425Z,36.57
2019-04-25T04:33:26.675Z,31.37
2019-04-25T04:35:47.639Z,35.70
2019-04-25T04:38:16.858Z,39.93
2019-04-25T04:40:46.149Z,36.37
2019-04-25T04:43:16.505Z,31.57
2019-04-25T04:45:45.869Z,29.67
2019-04-25T04:48:16.652Z,35.07
2019-04-25T04:50:46.045Z,34.73
2019-04-25T04:53:16.039Z,28.40
2019-04-25T04:55:45.615Z,29.70
2019-04-25T04:58:16.110Z,30.97
2019-04-25T05:00:46.326Z,27.57
2019-04-25T05:03:26.684Z,31.83
2019-04-25T05:06:17.761Z,30.20
2019-04-25T05:08:50.186Z,28.00
2019-04-25T05:11:19.929Z,30.47
2019-04-25T05:13:49.456Z,27.07
2019-04-25T05:16:19.759Z,25.57
2019-04-25T05:18:49.130Z,32.73
2019-04-25T05:21:18.459Z,27.37
2019-04-25T05:23:47.763Z,29.07
2019-04-25T05:26:17.232Z,28.10
2019-04-25T05:28:46.545Z,24.83
2019-04-25T05:31:37.885Z,28.77
2019-04-25T05:34:07.126Z,23.63
2019-04-25T05:36:39.447Z,23.20
2019-04-25T05:39:10.597Z,24.60
2019-04-25T05:41:59.663Z,24.30
2019-04-25T05:44:30.219Z,24.00
2019-04-25T05:46:59.502Z,27.57
2019-04-25T05:49:28.840Z,25.63
2019-04-25T05:51:58.094Z,24.00
2019-04-25T05:54:27.481Z,34.10
2019-04-25T05:56:56.831Z,31.40
2019-04-25T05:59:26.921Z,31.03
2019-04-25T06:01:56.306Z,34.07
2019-04-25T06:04:25.903Z,32.23
2019-04-25T06:06:55.335Z,33.10
2019-04-25T06:09:54.404Z,36.03
2019-04-25T06:12:34.094Z,26.67
2019-04-25T06:15:03.514Z,30.70
2019-04-25T06:17:53.370Z,31.23
2019-04-25T06:20:24.909Z,36.17
2019-04-25T06:23:11.004Z,24.65
2019-04-25T06:25:40.342Z,25.40
2019-04-25T06:28:13.636Z,29.50
2019-04-25T06:30:44.310Z,24.50
2019-04-25T06:33:15.026Z,26.70
2019-04-25T06:35:44.411Z,27.65
2019-04-25T06:38:13.693Z,24.20
2019-04-25T06:40:43.714Z,27.70
2019-04-25T06:43:13.634Z,26.00
2019-04-25T06:45:51.536Z,26.50
2019-04-25T06:48:27.104Z,26.27
2019-04-25T06:50:57.232Z,30.32
2019-04-25T06:53:26.954Z,27.80
2019-04-25T06:55:56.323Z,31.33
2019-04-25T06:58:27.178Z,27.77
2019-04-25T07:01:00.644Z,31.42
2019-04-25T07:03:27.634Z,28.47
2019-04-25T07:05:57.011Z,27.37
2019-04-25T07:08:26.915Z,29.37
2019-04-25T07:10:57.083Z,33.38
2019-04-25T07:13:27.045Z,30.32
2019-04-25T07:15:56.475Z,26.77
2019-04-25T07:18:30.529Z,33.70
2019-04-25T07:20:56.804Z,29.37
2019-04-25T07:23:26.615Z,31.02
2019-04-25T07:26:07.066Z,24.23
2019-04-25T07:28:58.201Z,25.90
2019-04-25T07:31:50.831Z,30.37
2019-04-25T07:34:22.115Z,35.63
2019-04-25T07:36:51.550Z,29.45
2019-04-25T07:39:20.863Z,33.58
2019-04-25T07:41:50.326Z,31.90
2019-04-25T07:44:22.008Z,28.17
2019-04-25T07:46:50.708Z,32.58
2019-04-25T07:49:20.600Z,29.00
2019-04-25T07:51:53.656Z,33.45
2019-04-25T07:54:23.970Z,35.33
2019-04-25T07:56:55.066Z,27.40
2019-04-25T07:59:25.297Z,24.82
2019-04-25T08:01:54.715Z,31.12
2019-04-25T08:04:24.030Z,24.92
2019-04-25T08:06:54.270Z,23.30
2019-04-25T08:09:24.768Z,31.37
2019-04-25T08:11:54.941Z,27.13
2019-04-25T08:14:34.194Z,26.25
2019-04-25T08:17:04.150Z,28.62
2019-04-25T08:19:34.392Z,32.67
2019-04-25T08:22:04.992Z,26.65
2019-04-25T08:24:37.117Z,31.52
2019-04-25T08:27:09.326Z,28.32
2019-04-25T08:29:39.732Z,28.07
2019-04-25T08:32:09.212Z,30.75
2019-04-25T08:34:38.660Z,29.90
2019-04-25T08:37:18.064Z,29.52
2019-04-25T08:39:39.805Z,26.73
2019-04-25T08:42:10.319Z,21.52
2019-04-25T08:44:39.587Z,25.32
2019-04-25T08:47:08.982Z,22.25
2019-04-25T08:49:45.998Z,21.95
2019-04-25T08:52:15.541Z,24.77
2019-04-25T08:54:58.977Z,25.70
2019-04-25T08:57:46.426Z,20.32
2019-04-25T09:00:25.259Z,23.40
2019-04-25T09:02:58.674Z,18.12
2019-04-25T09:05:40.382Z,17.55
2019-04-25T09:08:10.216Z,21.02
2019-04-25T09:10:40.212Z,15.80
2019-04-25T09:13:13.508Z,18.92
2019-04-25T09:15:46.454Z,21.20
2019-04-25T09:18:15.728Z,18.32
2019-04-25T09:20:48.145Z,17.32
2019-04-25T09:23:20.638Z,16.23
2019-04-25T09:25:49.994Z,21.10
2019-04-25T09:28:19.494Z,21.02
2019-04-25T09:30:51.878Z,26.57
2019-04-25T09:33:39.163Z,16.62
2019-04-25T09:36:10.575Z,18.87
2019-04-25T09:38:40.938Z,16.02
2019-04-25T09:41:10.463Z,20.35
2019-04-25T09:43:40.335Z,18.65
2019-04-25T09:46:21.261Z,20.70
2019-04-25T09:49:10.612Z,19.48
2019-04-25T09:51:45.784Z,19.07
2019-04-25T09:54:48.127Z,14.23
2019-04-25T09:57:38.948Z,16.07
2019-04-25T10:00:18.928Z,14.70
2019-04-25T10:02:50.412Z,17.67
2019-04-25T10:05:20.957Z,16.05
2019-04-25T10:07:50.751Z,15.05
2019-04-25T10:10:20.010Z,14.38
2019-04-25T10:12:49.985Z,14.15
2019-04-25T10:15:44.712Z,15.90
2019-04-25T10:18:15.874Z,11.93
2019-04-25T10:20:46.308Z,18.17
2019-04-25T10:23:15.855Z,15.58
2019-04-25T10:25:48.580Z,14.60
2019-04-25T10:28:18.052Z,13.40
2019-04-25T10:30:49.164Z,11.15
2019-04-25T10:33:20.182Z,17.17
2019-04-25T10:35:55.900Z,15.30
2019-04-25T10:38:20.477Z,16.10
2019-04-25T10:40:50.794Z,14.40
2019-04-25T10:43:21.692Z,15.60
2019-04-25T10:45:51.235Z,14.60
2019-04-25T10:48:24.137Z,20.37
2019-04-25T10:50:55.622Z,12.70
2019-04-25T10:53:25.166Z,13.53
2019-04-25T10:55:58.292Z,14.98
2019-04-25T10:58:27.655Z,16.87
2019-04-25T11:00:57.272Z,12.47
2019-04-25T11:03:49.916Z,11.90
2019-04-25T11:06:24.444Z,12.75
2019-04-25T11:08:56.299Z,10.35
2019-04-25T11:11:24.908Z,14.43
2019-04-25T11:13:57.399Z,12.63
2019-04-25T11:16:26.933Z,14.20
2019-04-25T11:18:56.721Z,10.65
2019-04-25T11:21:25.984Z,9.68
2019-04-25T11:23:55.576Z,12.47
2019-04-25T11:26:25.729Z,13.30
2019-04-25T11:28:54.998Z,10.90
2019-04-25T11:31:28.986Z,10.95
2019-04-25T11:33:58.358Z,10.60
2019-04-25T11:36:27.607Z,12.37
2019-04-25T11:39:34.200Z,11.57
2019-04-25T11:42:06.363Z,10.58
2019-04-25T11:44:35.998Z,9.83
2019-04-25T11:47:06.919Z,9.90
2019-04-25T11:49:36.865Z,16.80
2019-04-25T11:52:06.921Z,6.78
2019-04-25T11:54:36.364Z,6.75
2019-04-25T11:57:07.326Z,5.58
2019-04-25T11:59:37.940Z,4.87
2019-04-25T12:02:09.841Z,5.80
2019-04-25T12:04:39.278Z,7.03
2019-04-25T12:07:09.534Z,8.40
2019-04-25T12:09:39.181Z,8.03
2019-04-25T12:12:09.797Z,7.72
2019-04-25T12:14:39.053Z,7.60
2019-04-25T12:17:08.382Z,8.00
2019-04-25T12:19:38.171Z,9.83
2019-04-25T12:22:07.955Z,9.15
2019-04-25T12:24:40.060Z,11.03
2019-04-25T12:27:09.502Z,12.50
2019-04-25T12:29:39.340Z,7.17
2019-04-25T12:32:10.401Z,6.05
2019-04-25T12:34:40.118Z,10.58
2019-04-25T12:37:09.495Z,8.63
2019-04-25T12:39:38.962Z,13.83
2019-04-25T12:42:08.733Z,14.63
2019-04-25T12:45:06.103Z,9.40
2019-04-25T12:47:38.999Z,9.10
2019-04-25T12:50:08.961Z,10.40
2019-04-25T12:52:39.246Z,7.90
2019-04-25T12:55:09.574Z,8.18
2019-04-25T12:57:40.038Z,9.48
2019-04-25T13:00:10.713Z,8.25
2019-04-25T13:02:40.056Z,7.92
2019-04-25T13:05:10.698Z,10.80
2019-04-25T13:07:43.006Z,7.80
2019-04-25T13:10:15.378Z,10.63
2019-04-25T13:12:44.882Z,7.62
2019-04-25T13:15:14.592Z,11.30
2019-04-25T13:17:43.918Z,8.30
2019-04-25T13:20:13.608Z,9.83
2019-04-25T13:22:43.334Z,7.25
2019-04-25T13:25:14.958Z,9.98
2019-04-25T13:28:05.568Z,10.70
2019-04-25T13:31:03.987Z,9.05
2019-04-25T13:33:57.205Z,6.50
2019-04-25T13:36:27.328Z,6.35
2019-04-25T13:38:57.174Z,12.33
2019-04-25T13:41:27.175Z,11.25
2019-04-25T13:43:56.632Z,12.00
2019-04-25T13:46:27.689Z,9.80
2019-04-25T13:48:57.166Z,13.58
2019-04-25T13:51:26.743Z,16.12
2019-04-25T13:53:56.460Z,15.72
2019-04-25T13:56:27.445Z,10.08
2019-04-25T13:58:56.943Z,10.20
2019-04-25T14:01:27.643Z,9.30
2019-04-25T14:04:00.806Z,14.93
2019-04-25T14:06:32.429Z,10.03
2019-04-25T14:09:07.736Z,11.80
2019-04-25T14:11:37.043Z,11.90
2019-04-25T14:14:06.574Z,12.95
2019-04-25T14:17:07.358Z,11.22
2019-04-25T14:20:05.293Z,8.60
2019-04-25T14:22:34.702Z,14.25
2019-04-25T14:25:05.324Z,11.48
2019-04-25T14:27:34.582Z,10.78
2019-04-25T14:30:04.535Z,10.82
2019-04-25T14:32:35.101Z,11.70
2019-04-25T14:35:04.569Z,8.50
2019-04-25T14:37:39.466Z,12.75
2019-04-25T14:40:06.961Z,11.68
2019-04-25T14:42:38.277Z,11.45
2019-04-25T14:45:08.179Z,9.30
2019-04-25T14:47:37.815Z,12.78
2019-04-25T14:50:07.098Z,11.80
2019-04-25T14:52:38.712Z,6.87
2019-04-25T14:55:27.988Z,10.13
2019-04-25T14:57:58.714Z,9.60
2019-04-25T15:00:34.903Z,7.78
2019-04-25T15:03:04.659Z,11.85
2019-04-25T15:05:34.822Z,9.85
2019-04-25T15:08:04.394Z,9.10
2019-04-25T15:10:34.092Z,12.73
2019-04-25T15:13:04.515Z,11.25
2019-04-25T15:15:33.868Z,11.80
2019-04-25T15:18:04.191Z,8.95
2019-04-25T15:20:34.361Z,13.13
2019-04-25T15:23:03.821Z,8.83
2019-04-25T15:25:33.579Z,8.15
2019-04-25T15:28:03.027Z,6.55
2019-04-25T15:30:36.973Z,8.65
2019-04-25T15:33:07.466Z,11.85
2019-04-25T15:35:47.223Z,6.60
2019-04-25T15:38:25.421Z,8.75
2019-04-25T15:41:04.586Z,10.10
2019-04-25T15:43:49.098Z,6.72
2019-04-25T15:46:22.243Z,7.83
2019-04-25T15:48:52.464Z,7.80
2019-04-25T15:51:22.051Z,7.45
2019-04-25T15:53:51.439Z,6.60
2019-04-25T15:56:20.725Z,8.23
2019-04-25T15:58:50.033Z,7.22
2019-04-25T16:01:20.357Z,9.30
2019-04-25T16:03:52.369Z,6.03
2019-04-25T16:06:20.673Z,9.73
2019-04-25T16:08:49.939Z,8.38
2019-04-25T16:11:19.316Z,4.55
2019-04-25T16:13:48.638Z,5.62
2019-04-25T16:16:17.954Z,8.80
2019-04-25T16:18:47.208Z,6.33
2019-04-25T16:21:16.580Z,6.70
2019-04-25T16:23:46.204Z,14.53
2019-04-25T16:26:15.519Z,8.03
2019-04-25T16:28:45.901Z,6.33
2019-04-25T16:31:18.340Z,9.58
2019-04-25T16:33:47.641Z,11.55
2019-04-25T16:36:17.359Z,13.90
2019-04-25T16:38:46.633Z,10.05
2019-04-25T16:41:16.325Z,7.12
2019-04-25T16:43:49.010Z,6.33
2019-04-25T16:46:19.083Z,9.53
2019-04-25T16:48:48.387Z,9.55
2019-04-25T16:51:18.066Z,7.30
2019-04-25T16:53:47.431Z,7.28
2019-04-25T16:56:16.682Z,7.53
2019-04-25T16:58:46.005Z,5.83
2019-04-25T17:01:15.806Z,6.95
2019-04-25T17:03:45.179Z,8.60
2019-04-25T17:06:14.786Z,9.00
2019-04-25T17:08:44.045Z,4.72
2019-04-25T17:11:13.576Z,10.85
2019-04-25T17:13:52.476Z,8.58
2019-04-25T17:16:34.697Z,7.60
2019-04-25T17:19:09.987Z,7.87
2019-04-25T17:21:39.484Z,7.65
2019-04-25T17:24:10.993Z,7.30
2019-04-25T17:26:40.619Z,8.23
2019-04-25T17:29:15.103Z,6.92
2019-04-25T17:32:07.335Z,9.15
2019-04-25T17:34:51.492Z,9.53
2019-04-25T17:37:51.960Z,11.40
2019-04-25T17:40:25.217Z,10.45
2019-04-25T17:42:56.059Z,11.63
2019-04-25T17:45:29.692Z,11.48
2019-04-25T17:47:59.908Z,9.73
2019-04-25T17:50:29.205Z,9.35
2019-04-25T17:52:58.571Z,10.00
2019-04-25T17:55:27.922Z,9.78
2019-04-25T17:57:57.242Z,10.80
2019-04-25T18:00:33.774Z,7.83
2019-04-25T18:03:03.427Z,10.68
2019-04-25T18:05:32.845Z,12.60
2019-04-25T18:08:02.781Z,9.63
2019-04-25T18:10:34.191Z,8.68
2019-04-25T18:13:04.375Z,13.43
2019-04-25T18:15:50.548Z,12.07
2019-04-25T18:18:37.085Z,10.18
2019-04-25T18:21:06.591Z,10.03
2019-04-25T18:24:10.187Z,12.20
2019-04-25T18:27:02.722Z,8.23
2019-04-25T18:29:32.631Z,8.63
2019-04-25T18:32:02.541Z,11.93
2019-04-25T18:34:48.122Z,13.50
2019-04-25T18:37:37.283Z,12.07
2019-04-25T18:40:27.553Z,5.97
2019-04-25T18:43:14.083Z,14.43
2019-04-25T18:45:46.524Z,10.30
2019-04-25T18:48:15.852Z,11.48
2019-04-25T18:50:45.367Z,9.80
2019-04-25T18:53:33.642Z,12.75
2019-04-25T18:56:11.950Z,11.22
2019-04-25T18:59:02.042Z,11.12
2019-04-25T19:01:53.956Z,9.40
2019-04-25T19:04:36.258Z,8.93
2019-04-25T19:07:05.576Z,13.32
2019-04-25T19:09:34.902Z,14.68
2019-04-25T19:12:04.250Z,14.03
2019-04-25T19:14:33.583Z,12.23
2019-04-25T19:17:02.915Z,9.43
2019-04-25T19:19:32.178Z,9.05
2019-04-25T19:22:01.580Z,9.73
2019-04-25T19:24:32.907Z,12.78
2019-04-25T19:27:02.331Z,9.98
2019-04-25T19:29:31.789Z,13.28
2019-04-25T19:32:01.113Z,12.50
2019-04-25T19:34:30.420Z,12.45
2019-04-25T19:36:59.780Z,10.53
2019-04-25T19:39:31.045Z,14.45
2019-04-25T19:42:17.926Z,10.18
2019-04-25T19:44:47.353Z,10.68
2019-04-25T19:47:16.642Z,13.88
2019-04-25T19:49:45.924Z,11.68
2019-04-25T19:52:15.167Z,13.62
2019-04-25T19:54:45.189Z,16.55
2019-04-25T19:57:14.723Z,15.90
2019-04-25T19:59:44.671Z,18.02
2019-04-25T20:02:25.940Z,15.80
2019-04-25T20:05:05.872Z,12.63
2019-04-25T20:07:46.552Z,13.15
2019-04-25T20:10:30.992Z,12.80
2019-04-25T20:13:00.285Z,15.03
2019-04-25T20:15:29.630Z,16.70
2019-04-25T20:17:58.895Z,14.40
2019-04-25T20:20:29.443Z,8.98
2019-04-25T20:22:59.144Z,12.05
2019-04-25T20:25:28.531Z,16.52
2019-04-25T20:27:57.856Z,20.48
2019-04-25T20:30:27.189Z,13.48
2019-04-25T20:32:56.558Z,11.90
2019-04-25T20:35:25.920Z,10.35
2019-04-25T20:37:55.638Z,17.75
2019-04-25T20:40:25.029Z,12.43
2019-04-25T20:42:54.397Z,9.85
2019-04-25T20:45:24.043Z,19.00
2019-04-25T20:47:54.802Z,14.85
2019-04-25T20:50:24.196Z,12.45
2019-04-25T20:52:54.757Z,13.45
2019-04-25T20:55:24.566Z,16.67
2019-04-25T20:57:53.925Z,12.93
2019-04-25T21:00:44.624Z,14.25
2019-04-25T21:03:14.628Z,16.95
2019-04-25T21:05:45.873Z,9.98
2019-04-25T21:08:15.147Z,15.63
2019-04-25T21:10:44.493Z,16.12
2019-04-25T21:13:18.258Z,16.35
2019-04-25T21:15:56.176Z,15.58
2019-04-25T21:18:47.211Z,19.70
2019-04-25T21:21:17.372Z,10.98
2019-04-25T21:23:46.789Z,12.73
2019-04-25T21:26:16.118Z,17.20
2019-04-25T21:28:45.408Z,13.70
2019-04-25T21:31:14.895Z,15.30
2019-04-25T21:33:44.254Z,13.25
2019-04-25T21:36:13.832Z,13.67
2019-04-25T21:38:44.658Z,15.88
2019-04-25T21:41:41.513Z,15.80
2019-04-25T21:44:11.354Z,17.80
2019-04-25T21:46:41.370Z,16.75
2019-04-25T21:49:11.098Z,16.82
2019-04-25T21:51:40.404Z,17.20
2019-04-25T21:54:09.782Z,14.07
2019-04-25T21:56:40.216Z,13.10
2019-04-25T21:59:09.849Z,15.97
2019-04-25T22:01:41.314Z,12.78
2019-04-25T22:04:13.206Z,14.17
2019-04-25T22:06:45.331Z,12.95
2019-04-25T22:09:17.423Z,12.33
2019-04-25T22:11:46.973Z,18.30
2019-04-25T22:14:17.206Z,15.07
2019-04-25T22:16:46.986Z,14.53
2019-04-25T22:19:17.067Z,14.40
2019-04-25T22:21:46.854Z,10.88
2019-04-25T22:24:17.228Z,12.00
2019-04-25T22:26:48.181Z,12.13
2019-04-25T22:29:17.590Z,15.05
2019-04-25T22:31:54.578Z,12.07
2019-04-25T22:34:33.055Z,11.13
2019-04-25T22:37:02.386Z,12.20
2019-04-25T22:39:31.759Z,16.93
2019-04-25T22:42:01.987Z,18.60
2019-04-25T22:44:31.738Z,17.47
2019-04-25T22:47:02.314Z,12.97
2019-04-25T22:49:31.741Z,9.80
2019-04-25T22:52:01.764Z,11.10
2019-04-25T22:54:32.359Z,12.03
2019-04-25T22:57:02.965Z,12.00
2019-04-25T22:59:34.520Z,12.40
2019-04-25T23:02:21.591Z,11.43
2019-04-25T23:05:09.047Z,10.20
2019-04-25T23:07:30.798Z,13.70
2019-04-25T23:10:00.558Z,12.97
2019-04-25T23:12:31.210Z,12.67
2019-04-25T23:15:00.597Z,19.73
2019-04-25T23:17:30.223Z,14.27
2019-04-25T23:19:59.856Z,9.03
2019-04-25T23:22:29.318Z,10.40
2019-04-25T23:25:06.528Z,13.83
2019-04-25T23:27:44.605Z,18.93
2019-04-25T23:30:15.932Z,13.20
2019-04-25T23:32:45.314Z,16.67
2019-04-25T23:35:27.558Z,13.60
2019-04-25T23:37:45.874Z,13.87
2019-04-25T23:40:15.871Z,13.53
2019-04-25T23:42:45.379Z,12.43
2019-04-25T23:45:14.686Z,9.67
2019-04-25T23:47:43.982Z,10.53
2019-04-25T23:50:14.684Z,11.93
2019-04-25T23:52:44.138Z,14.40
2019-04-25T23:55:13.432Z,12.33
2019-04-25T23:57:42.788Z,10.10
